createdAt,value
2023-01-27T00:01:50.096Z,100276.91
2023-01-27T00:04:18.757Z,100315.97
2023-01-27T00:06:49.049Z,100297.72
2023-01-27T00:09:17.664Z,100283.56
2023-01-27T00:12:04.676Z,100278.22
2023-01-27T00:14:33.356Z,100230.41
2023-01-27T00:17:02.059Z,100333.06
2023-01-27T00:19:30.727Z,100313.03
2023-01-27T00:22:17.839Z,100257.59
2023-01-27T00:24:46.582Z,100307.06
2023-01-27T00:27:15.089Z,100301.22
2023-01-27T00:29:43.718Z,100219.28
2023-01-27T00:32:33.242Z,100329.03
2023-01-27T00:35:01.921Z,100280.69
2023-01-27T00:37:30.500Z,100297.41
2023-01-27T00:39:59.097Z,100278.09
2023-01-27T00:42:27.518Z,100317.59
2023-01-27T00:45:14.420Z,100267.38
2023-01-27T00:47:42.957Z,100316.06
2023-01-27T00:50:12.477Z,100296.09
2023-01-27T00:52:42.292Z,100309.34
2023-01-27T00:55:13.800Z,100241.97
2023-01-27T00:57:43.096Z,100290.47
2023-01-27T01:00:13.089Z,100301.09
2023-01-27T01:02:42.173Z,100312.50
2023-01-27T01:05:10.935Z,100287.41
2023-01-27T01:07:39.493Z,100202.41
2023-01-27T01:10:10.528Z,100265.00
2023-01-27T01:12:39.270Z,100306.91
2023-01-27T01:15:08.438Z,100271.97
2023-01-27T01:17:37.032Z,100229.25
2023-01-27T01:20:06.079Z,100314.13
2023-01-27T01:22:34.693Z,100335.00
2023-01-27T01:25:03.201Z,100306.91
2023-01-27T01:27:31.941Z,100332.44
2023-01-27T01:30:01.816Z,100297.50
2023-01-27T01:32:30.841Z,100344.50
2023-01-27T01:34:59.314Z,100331.22
2023-01-27T01:37:27.895Z,100333.59
2023-01-27T01:39:56.478Z,100329.84
2023-01-27T01:42:25.221Z,100338.41
2023-01-27T01:45:31.885Z,100358.22
2023-01-27T01:48:11.396Z,100359.16
2023-01-27T01:50:43.187Z,100264.13
2023-01-27T01:53:13.038Z,100319.09
2023-01-27T01:55:42.514Z,100347.88
2023-01-27T01:58:13.815Z,100356.59
2023-01-27T02:00:42.827Z,100340.63
2023-01-27T02:03:11.636Z,100377.19
2023-01-27T02:05:45.259Z,100348.53
2023-01-27T02:08:22.713Z,100378.66
2023-01-27T02:10:53.246Z,100359.72
2023-01-27T02:13:22.776Z,100374.75
2023-01-27T02:15:54.075Z,100334.72
2023-01-27T02:18:23.776Z,100383.97
2023-01-27T02:20:54.771Z,100368.44
2023-01-27T02:23:38.179Z,100388.50
2023-01-27T02:26:21.923Z,100379.63
2023-01-27T02:29:02.618Z,100335.34
2023-01-27T02:31:31.524Z,100395.19
2023-01-27T02:34:08.634Z,100388.09
2023-01-27T02:36:51.005Z,100328.09
2023-01-27T02:39:23.518Z,100389.19
2023-01-27T02:41:55.500Z,100404.00
2023-01-27T02:44:24.174Z,100316.88
2023-01-27T02:46:52.896Z,100363.13
2023-01-27T02:49:21.395Z,100291.81
2023-01-27T02:51:51.707Z,100400.34
2023-01-27T02:54:20.636Z,100355.59
2023-01-27T02:56:49.371Z,100403.34
2023-01-27T02:59:18.635Z,100400.72
2023-01-27T03:01:49.072Z,100387.81
2023-01-27T03:04:17.645Z,100382.59
2023-01-27T03:06:46.495Z,100401.00
2023-01-27T03:09:17.447Z,100380.84
2023-01-27T03:12:04.356Z,100387.06
2023-01-27T03:14:50.879Z,100411.22
2023-01-27T03:17:39.994Z,100398.31
2023-01-27T03:20:09.719Z,100383.84
2023-01-27T03:22:38.878Z,100406.50
2023-01-27T03:25:08.345Z,100415.38
2023-01-27T03:27:37.168Z,100395.28
2023-01-27T03:30:24.009Z,100411.91
2023-01-27T03:33:07.206Z,100382.34
2023-01-27T03:36:14.810Z,100392.84
2023-01-27T03:39:10.572Z,100305.97
2023-01-27T03:41:57.556Z,100391.91
2023-01-27T03:44:46.757Z,100423.38
2023-01-27T03:47:15.442Z,100386.81
2023-01-27T03:49:44.119Z,100421.53
2023-01-27T03:52:12.623Z,100405.38
2023-01-27T03:54:41.379Z,100421.72
2023-01-27T03:57:10.280Z,100381.88
2023-01-27T03:59:38.722Z,100431.16
2023-01-27T04:02:25.716Z,100399.41
2023-01-27T04:05:12.875Z,100325.00
2023-01-27T04:07:41.699Z,100418.53
2023-01-27T04:10:11.000Z,100429.94
2023-01-27T04:12:39.903Z,100404.13
2023-01-27T04:15:09.243Z,100354.59
2023-01-27T04:17:39.659Z,100437.19
2023-01-27T04:20:08.576Z,100423.78
2023-01-27T04:22:37.217Z,100455.13
2023-01-27T04:25:06.459Z,100457.28
2023-01-27T04:27:35.068Z,100414.84
2023-01-27T04:30:03.739Z,100418.50
2023-01-27T04:32:32.364Z,100449.69
2023-01-27T04:35:01.092Z,100444.44
2023-01-27T04:37:29.621Z,100452.31
2023-01-27T04:39:58.317Z,100482.09
2023-01-27T04:42:26.963Z,100444.81
2023-01-27T04:44:55.522Z,100466.50
2023-01-27T04:47:24.195Z,100480.34
2023-01-27T04:49:52.818Z,100488.34
2023-01-27T04:52:21.379Z,100427.00
2023-01-27T04:54:50.644Z,100491.53
2023-01-27T04:57:21.503Z,100471.63
2023-01-27T04:59:50.984Z,100496.84
2023-01-27T05:02:19.495Z,100484.81
2023-01-27T05:04:48.196Z,100442.31
2023-01-27T05:07:16.905Z,100449.50
2023-01-27T05:09:45.598Z,100487.47
2023-01-27T05:12:14.038Z,100481.00
2023-01-27T05:14:42.799Z,100489.88
2023-01-27T05:17:11.261Z,100454.31
2023-01-27T05:19:39.877Z,100485.00
2023-01-27T05:22:09.441Z,100492.16
2023-01-27T05:24:41.868Z,100488.09
2023-01-27T05:27:10.698Z,100506.19
2023-01-27T05:29:39.255Z,100467.34
2023-01-27T05:32:11.336Z,100498.59
2023-01-27T05:34:39.843Z,100497.53
2023-01-27T05:37:08.600Z,100503.72
2023-01-27T05:39:37.119Z,100399.75
2023-01-27T05:42:05.718Z,100488.50
2023-01-27T05:44:34.600Z,100460.28
2023-01-27T05:47:03.656Z,100478.75
2023-01-27T05:49:32.262Z,100477.38
2023-01-27T05:52:00.973Z,100491.97
2023-01-27T05:54:29.698Z,100374.34
2023-01-27T05:56:58.167Z,100486.69
2023-01-27T05:59:26.940Z,100495.94
2023-01-27T06:01:55.727Z,100497.50
2023-01-27T06:04:24.441Z,100518.28
2023-01-27T06:06:53.221Z,100499.59
2023-01-27T06:09:21.895Z,100439.19
2023-01-27T06:11:50.720Z,100506.16
2023-01-27T06:14:20.178Z,100527.25
2023-01-27T06:16:49.616Z,100503.59
2023-01-27T06:19:18.384Z,100484.16
2023-01-27T06:21:46.877Z,100505.72
2023-01-27T06:24:15.601Z,100522.84
2023-01-27T06:26:44.092Z,100519.72
2023-01-27T06:29:12.700Z,100509.56
2023-01-27T06:31:41.373Z,100484.72
2023-01-27T06:34:10.099Z,100520.66
2023-01-27T06:36:38.713Z,100503.00
2023-01-27T06:39:07.313Z,100508.03
2023-01-27T06:41:36.291Z,100529.66
2023-01-27T06:44:04.997Z,100502.06
2023-01-27T06:46:33.873Z,100523.97
2023-01-27T06:49:02.332Z,100523.25
2023-01-27T06:51:31.117Z,100503.56
2023-01-27T06:53:59.651Z,100517.63
2023-01-27T06:56:28.349Z,100532.06
2023-01-27T06:58:56.980Z,100543.31
2023-01-27T07:01:25.676Z,100496.94
2023-01-27T07:03:54.733Z,100517.09
2023-01-27T07:06:23.060Z,100531.59
2023-01-27T07:08:53.643Z,100504.25
2023-01-27T07:11:25.003Z,100515.34
2023-01-27T07:13:53.525Z,100504.81
2023-01-27T07:16:22.383Z,100502.19
2023-01-27T07:18:51.286Z,100563.16
2023-01-27T07:21:19.781Z,100548.91
2023-01-27T07:23:48.185Z,100501.38
2023-01-27T07:26:24.976Z,100508.84
2023-01-27T07:28:54.020Z,100519.19
2023-01-27T07:31:22.694Z,100549.53
2023-01-27T07:33:51.356Z,100515.75
2023-01-27T07:36:20.109Z,100425.59
2023-01-27T07:38:54.664Z,100497.28
2023-01-27T07:41:25.437Z,100556.16
2023-01-27T07:43:54.043Z,100493.56
2023-01-27T07:46:23.367Z,100464.09
2023-01-27T07:48:52.215Z,100550.31
2023-01-27T07:51:20.645Z,100528.81
2023-01-27T07:53:49.327Z,100539.72
2023-01-27T07:56:17.853Z,100563.94
2023-01-27T07:58:46.425Z,100545.22
2023-01-27T08:01:15.158Z,100579.94
2023-01-27T08:03:43.729Z,100467.50
2023-01-27T08:06:14.105Z,100572.78
2023-01-27T08:08:45.989Z,100539.53
2023-01-27T08:11:15.706Z,100494.88
2023-01-27T08:13:44.109Z,100571.44
2023-01-27T08:16:15.083Z,100502.06
2023-01-27T08:18:44.211Z,100575.63
2023-01-27T08:21:13.871Z,100554.16
2023-01-27T08:23:42.646Z,100570.59
2023-01-27T08:26:11.144Z,100538.34
2023-01-27T08:28:40.973Z,100548.44
2023-01-27T08:31:12.987Z,100540.00
2023-01-27T08:33:43.082Z,100522.59
2023-01-27T08:36:15.423Z,100538.25
2023-01-27T08:38:45.775Z,100537.34
2023-01-27T08:41:19.017Z,100536.38
2023-01-27T08:43:48.204Z,100561.44
2023-01-27T08:46:17.540Z,100551.91
2023-01-27T08:48:46.827Z,100553.53
2023-01-27T08:51:15.854Z,100557.69
2023-01-27T08:53:44.402Z,100549.06
2023-01-27T08:56:15.326Z,100589.25
2023-01-27T08:58:43.988Z,100485.63
2023-01-27T09:01:12.918Z,100577.69
2023-01-27T09:03:41.709Z,100566.38
2023-01-27T09:06:12.694Z,100550.22
2023-01-27T09:08:42.192Z,100581.25
2023-01-27T09:11:16.330Z,100546.47
2023-01-27T09:13:45.087Z,100555.94
2023-01-27T09:16:13.888Z,100590.16
2023-01-27T09:18:43.097Z,100539.06
2023-01-27T09:21:12.062Z,100585.13
2023-01-27T09:23:40.589Z,100582.47
2023-01-27T09:26:09.275Z,100575.63
2023-01-27T09:28:37.829Z,100584.34
2023-01-27T09:31:06.830Z,100555.56
2023-01-27T09:33:35.507Z,100559.22
2023-01-27T09:36:11.328Z,100557.94
2023-01-27T09:38:46.234Z,100554.69
2023-01-27T09:41:42.008Z,100565.00
2023-01-27T09:44:13.571Z,100592.97
2023-01-27T09:47:00.986Z,100591.22
2023-01-27T09:49:44.957Z,100589.59
2023-01-27T09:52:50.540Z,100591.88
2023-01-27T09:55:31.198Z,100589.31
2023-01-27T09:58:00.011Z,100593.66
2023-01-27T10:00:46.070Z,100559.84
2023-01-27T10:03:20.410Z,100585.97
2023-01-27T10:06:20.647Z,100584.19
2023-01-27T10:09:24.528Z,100581.75
2023-01-27T10:12:04.771Z,100592.09
2023-01-27T10:14:36.434Z,100591.13
2023-01-27T10:17:31.926Z,100586.84
2023-01-27T10:20:12.792Z,100599.59
2023-01-27T10:23:19.650Z,100587.91
2023-01-27T10:25:56.012Z,100534.38
2023-01-27T10:28:29.056Z,100577.81
2023-01-27T10:31:09.508Z,100584.47
2023-01-27T10:33:44.550Z,100617.19
2023-01-27T10:36:43.987Z,100544.78
2023-01-27T10:39:28.021Z,100590.84
2023-01-27T10:42:22.918Z,100600.44
2023-01-27T10:45:20.746Z,100617.19
2023-01-27T10:47:55.709Z,100580.59
2023-01-27T10:50:31.868Z,100613.56
2023-01-27T10:53:13.563Z,100625.25
2023-01-27T10:56:09.190Z,100598.94
2023-01-27T10:58:50.867Z,100615.34
2023-01-27T11:01:26.354Z,100601.41
2023-01-27T11:04:09.561Z,100630.13
2023-01-27T11:06:42.062Z,100588.38
2023-01-27T11:09:38.191Z,100603.66
2023-01-27T11:12:14.281Z,100546.03
2023-01-27T11:14:53.162Z,100639.44
2023-01-27T11:17:42.067Z,100642.88
2023-01-27T11:20:33.063Z,100570.50
2023-01-27T11:23:05.223Z,100612.38
2023-01-27T11:25:49.487Z,100649.53
2023-01-27T11:28:40.206Z,100610.50
2023-01-27T11:31:11.687Z,100629.88
2023-01-27T11:33:44.972Z,100635.59
2023-01-27T11:36:13.508Z,100645.59
2023-01-27T11:38:41.970Z,100551.16
2023-01-27T11:41:11.526Z,100610.38
2023-01-27T11:43:40.848Z,100594.63
2023-01-27T11:46:19.807Z,100620.63
2023-01-27T11:48:58.068Z,100554.44
2023-01-27T11:51:40.130Z,100618.25
2023-01-27T11:54:11.485Z,100644.34
2023-01-27T11:56:42.188Z,100552.72
2023-01-27T11:59:33.674Z,100645.88
2023-01-27T12:02:08.222Z,100650.31
2023-01-27T12:04:39.621Z,100637.53
2023-01-27T12:07:46.335Z,100646.28
2023-01-27T12:10:32.514Z,100636.81
2023-01-27T12:13:21.908Z,100615.94
2023-01-27T12:15:55.696Z,100641.84
2023-01-27T12:18:27.009Z,100582.81
2023-01-27T12:21:01.624Z,100636.81
2023-01-27T12:23:52.955Z,100589.03
2023-01-27T12:26:48.045Z,100634.16
2023-01-27T12:29:31.991Z,100635.84
2023-01-27T12:32:02.097Z,100627.41
2023-01-27T12:34:43.157Z,100599.63
2023-01-27T12:37:23.081Z,100587.59
2023-01-27T12:40:01.091Z,100625.66
2023-01-27T12:42:40.515Z,100638.81
2023-01-27T12:45:30.966Z,100627.66
2023-01-27T12:48:04.524Z,100606.75
2023-01-27T12:50:38.689Z,100576.63
2023-01-27T12:53:11.869Z,100620.97
2023-01-27T12:55:55.149Z,100631.28
2023-01-27T12:58:46.204Z,100620.66
2023-01-27T13:01:37.526Z,100618.09
2023-01-27T13:04:21.434Z,100631.81
2023-01-27T13:06:55.448Z,100600.66
2023-01-27T13:09:35.321Z,100607.69
2023-01-27T13:12:22.265Z,100658.78
2023-01-27T13:14:54.650Z,100594.91
2023-01-27T13:17:31.124Z,100632.16
2023-01-27T13:20:04.196Z,100618.47
2023-01-27T13:22:43.266Z,100537.84
2023-01-27T13:25:21.496Z,100585.72
2023-01-27T13:27:54.967Z,100594.31
2023-01-27T13:30:31.696Z,100632.63
2023-01-27T13:33:12.643Z,100617.78
2023-01-27T13:36:02.662Z,100603.88
2023-01-27T13:39:03.580Z,100615.75
2023-01-27T13:42:10.372Z,100640.16
2023-01-27T13:44:56.250Z,100620.97
2023-01-27T13:47:29.984Z,100600.94
2023-01-27T13:50:07.363Z,100643.66
2023-01-27T13:52:39.061Z,100650.63
2023-01-27T13:55:13.790Z,100641.84
2023-01-27T13:57:57.981Z,100652.16
2023-01-27T14:00:36.853Z,100640.66
2023-01-27T14:03:08.869Z,100660.75
2023-01-27T14:06:15.856Z,100649.59
2023-01-27T14:09:13.279Z,100623.38
2023-01-27T14:11:48.120Z,100649.69
2023-01-27T14:14:32.677Z,100546.06
2023-01-27T14:17:28.320Z,100612.25
2023-01-27T14:20:14.875Z,100656.72
2023-01-27T14:23:02.820Z,100533.38
2023-01-27T14:25:43.299Z,100642.38
2023-01-27T14:28:38.289Z,100639.03
2023-01-27T14:31:30.989Z,100617.34
2023-01-27T14:34:36.867Z,100578.34
2023-01-27T14:37:23.769Z,100622.13
2023-01-27T14:40:14.127Z,100626.44
2023-01-27T14:43:10.076Z,100621.25
2023-01-27T14:45:41.298Z,100577.72
2023-01-27T14:48:42.004Z,100634.00
2023-01-27T14:51:30.440Z,100597.41
2023-01-27T14:54:10.041Z,100626.31
2023-01-27T14:57:13.849Z,100620.34
2023-01-27T14:59:45.463Z,100620.38
2023-01-27T15:02:32.147Z,100631.50
2023-01-27T15:05:13.434Z,100641.78
2023-01-27T15:08:20.766Z,100622.97
2023-01-27T15:11:15.640Z,100622.13
2023-01-27T15:14:02.117Z,100617.28
2023-01-27T15:16:57.978Z,100610.50
2023-01-27T15:19:38.337Z,100614.81
2023-01-27T15:22:42.294Z,100614.09
2023-01-27T15:25:34.963Z,100611.63
2023-01-27T15:28:05.065Z,100604.75
2023-01-27T15:30:38.762Z,100582.16
2023-01-27T15:33:48.910Z,100612.66
2023-01-27T15:36:32.638Z,100621.25
2023-01-27T15:39:10.642Z,100621.28
2023-01-27T15:41:55.476Z,100578.81
2023-01-27T15:44:29.347Z,100617.88
2023-01-27T15:47:23.609Z,100610.06
2023-01-27T15:50:20.741Z,100603.84
2023-01-27T15:52:50.779Z,100526.00
2023-01-27T15:55:32.079Z,100525.81
2023-01-27T15:58:23.711Z,100628.38
2023-01-27T16:00:56.214Z,100582.25
2023-01-27T16:03:33.140Z,100594.44
2023-01-27T16:06:13.009Z,100588.47
2023-01-27T16:08:48.796Z,100604.28
2023-01-27T16:11:29.462Z,100607.03
2023-01-27T16:14:13.358Z,100600.19
2023-01-27T16:16:51.432Z,100543.72
2023-01-27T16:19:29.898Z,100555.06
2023-01-27T16:22:14.831Z,100564.94
2023-01-27T16:25:06.374Z,100587.72
2023-01-27T16:27:43.595Z,100578.47
2023-01-27T16:30:19.310Z,100581.09
2023-01-27T16:33:26.007Z,100568.28
2023-01-27T16:35:59.789Z,100548.41
2023-01-27T16:38:32.625Z,100538.16
2023-01-27T16:41:16.149Z,100572.16
2023-01-27T16:43:54.431Z,100549.50
2023-01-27T16:46:37.769Z,100526.19
2023-01-27T16:49:23.084Z,100568.13
2023-01-27T16:52:02.509Z,100562.03
2023-01-27T16:54:43.419Z,100580.22
2023-01-27T16:57:46.125Z,100572.72
2023-01-27T17:00:26.205Z,100521.47
2023-01-27T17:02:57.809Z,100522.41
2023-01-27T17:05:27.419Z,100485.94
2023-01-27T17:08:37.146Z,100560.16
2023-01-27T17:11:28.689Z,100555.00
2023-01-27T17:14:28.429Z,100512.44
2023-01-27T17:17:02.067Z,100560.13
2023-01-27T17:19:36.845Z,100569.69
2023-01-27T17:22:19.736Z,100549.13
2023-01-27T17:24:54.852Z,100522.34
2023-01-27T17:27:35.136Z,100522.94
2023-01-27T17:30:13.441Z,100548.72
2023-01-27T17:32:46.630Z,100506.09
2023-01-27T17:35:27.484Z,100436.53
2023-01-27T17:38:06.234Z,100554.81
2023-01-27T17:40:39.870Z,100520.09
2023-01-27T17:43:39.331Z,100483.53
2023-01-27T17:46:17.151Z,100505.47
2023-01-27T17:48:52.504Z,100526.22
2023-01-27T17:51:24.980Z,100457.63
2023-01-27T17:53:55.196Z,100532.38
2023-01-27T17:56:35.568Z,100545.47
2023-01-27T17:59:10.539Z,100530.69
2023-01-27T18:01:39.825Z,100555.09
2023-01-27T18:04:10.282Z,100499.38
2023-01-27T18:06:43.006Z,100500.50
2023-01-27T18:09:19.338Z,100543.00
2023-01-27T18:11:59.700Z,100539.69
2023-01-27T18:14:33.759Z,100524.00
2023-01-27T18:17:23.934Z,100532.88
2023-01-27T18:19:57.820Z,100533.78
2023-01-27T18:22:29.497Z,100487.72
2023-01-27T18:25:02.448Z,100516.50
2023-01-27T18:27:38.675Z,100516.41
2023-01-27T18:30:17.206Z,100529.44
2023-01-27T18:32:49.351Z,100319.81
2023-01-27T18:35:26.028Z,100533.75
2023-01-27T18:37:59.199Z,100506.75
2023-01-27T18:40:31.500Z,100509.50
2023-01-27T18:43:01.120Z,100429.44
2023-01-27T18:45:29.677Z,100497.16
2023-01-27T18:48:04.509Z,100525.00
2023-01-27T18:50:42.317Z,100492.88
2023-01-27T18:53:15.056Z,100495.31
2023-01-27T18:55:43.660Z,100522.13
2023-01-27T18:58:14.819Z,100432.91
2023-01-27T19:00:51.731Z,100492.13
2023-01-27T19:03:26.212Z,100511.22
2023-01-27T19:05:55.029Z,100519.91
2023-01-27T19:08:25.811Z,100495.56
2023-01-27T19:10:54.440Z,100512.25
2023-01-27T19:13:24.308Z,100422.56
2023-01-27T19:15:55.221Z,100496.50
2023-01-27T19:18:32.004Z,100503.38
2023-01-27T19:21:00.949Z,100431.28
2023-01-27T19:23:29.964Z,100491.22
2023-01-27T19:26:00.706Z,100472.94
2023-01-27T19:28:38.405Z,100492.81
2023-01-27T19:31:07.956Z,100467.66
2023-01-27T19:33:39.782Z,100508.47
2023-01-27T19:36:29.666Z,100511.13
2023-01-27T19:39:11.209Z,100513.63
2023-01-27T19:41:39.667Z,100515.28
2023-01-27T19:44:08.812Z,100405.19
2023-01-27T19:46:37.668Z,100497.91
2023-01-27T19:49:06.870Z,100477.09
2023-01-27T19:51:35.176Z,100506.69
2023-01-27T19:54:03.584Z,100411.09
2023-01-27T19:56:35.047Z,100499.84
2023-01-27T19:59:03.751Z,100480.63
2023-01-27T20:01:32.198Z,100410.25
2023-01-27T20:04:00.667Z,100459.13
2023-01-27T20:06:30.892Z,100439.28
2023-01-27T20:09:03.816Z,100450.56
2023-01-27T20:11:41.199Z,100468.00
2023-01-27T20:14:19.395Z,100432.31
2023-01-27T20:16:48.419Z,100456.75
2023-01-27T20:19:17.866Z,100470.75
2023-01-27T20:21:47.165Z,100429.22
2023-01-27T20:24:17.139Z,100463.91
2023-01-27T20:26:48.503Z,100370.94
2023-01-27T20:29:17.185Z,100451.78
2023-01-27T20:31:46.288Z,100456.09
2023-01-27T20:34:14.868Z,100417.63
2023-01-27T20:36:43.246Z,100444.66
2023-01-27T20:39:12.127Z,100447.38
2023-01-27T20:41:40.608Z,100437.94
2023-01-27T20:44:12.574Z,100464.75
2023-01-27T20:46:41.010Z,100444.00
2023-01-27T20:49:09.442Z,100369.22
2023-01-27T20:51:37.707Z,100412.63
2023-01-27T20:54:06.478Z,100438.75
2023-01-27T20:56:37.805Z,100430.84
2023-01-27T20:59:06.322Z,100457.97
2023-01-27T21:01:36.659Z,100434.28
2023-01-27T21:04:05.104Z,100455.19
2023-01-27T21:06:33.853Z,100356.16
2023-01-27T21:09:02.152Z,100418.84
2023-01-27T21:11:30.692Z,100439.50
2023-01-27T21:13:59.061Z,100434.47
2023-01-27T21:16:28.681Z,100340.63
2023-01-27T21:18:57.045Z,100443.88
2023-01-27T21:21:28.263Z,100413.44
2023-01-27T21:23:58.237Z,100417.09
2023-01-27T21:26:27.679Z,100386.03
2023-01-27T21:28:57.274Z,100419.06
2023-01-27T21:31:30.574Z,100422.63
2023-01-27T21:34:04.326Z,100423.44
2023-01-27T21:36:32.742Z,100434.81
2023-01-27T21:39:03.095Z,100408.06
2023-01-27T21:41:50.876Z,100423.75
2023-01-27T21:44:37.730Z,100451.38
2023-01-27T21:47:07.763Z,100426.97
2023-01-27T21:49:56.438Z,100443.50
2023-01-27T21:52:26.879Z,100412.44
2023-01-27T21:54:57.941Z,100416.59
2023-01-27T21:57:26.248Z,100431.34
2023-01-27T21:59:54.698Z,100440.09
2023-01-27T22:02:23.317Z,100407.94
2023-01-27T22:04:52.266Z,100455.66
2023-01-27T22:07:21.143Z,100298.75
2023-01-27T22:09:49.719Z,100413.41
2023-01-27T22:12:18.510Z,100449.03
2023-01-27T22:14:47.011Z,100430.00
2023-01-27T22:17:15.602Z,100414.41
2023-01-27T22:19:44.410Z,100394.41
2023-01-27T22:22:14.157Z,100414.41
2023-01-27T22:24:42.659Z,100409.16
2023-01-27T22:27:11.204Z,100393.50
2023-01-27T22:29:39.808Z,100375.22
2023-01-27T22:32:11.183Z,100413.41
2023-01-27T22:34:39.887Z,100416.00
2023-01-27T22:37:08.490Z,100390.00
2023-01-27T22:39:38.786Z,100411.81
2023-01-27T22:42:07.353Z,100331.09
2023-01-27T22:44:36.485Z,100355.59
2023-01-27T22:47:05.239Z,100410.31
2023-01-27T22:49:33.827Z,100407.75
2023-01-27T22:52:02.385Z,100385.97
2023-01-27T22:54:30.907Z,100395.53
2023-01-27T22:57:01.059Z,100333.81
2023-01-27T22:59:29.697Z,100389.50
2023-01-27T23:01:58.223Z,100402.38
2023-01-27T23:04:26.665Z,100403.50
2023-01-27T23:06:55.006Z,100378.38
2023-01-27T23:09:23.503Z,100339.34
2023-01-27T23:11:52.040Z,100393.31
2023-01-27T23:14:20.651Z,100306.47
2023-01-27T23:16:49.268Z,100359.66
2023-01-27T23:19:17.834Z,100357.84
2023-01-27T23:21:46.245Z,100363.16
2023-01-27T23:24:15.021Z,100383.16
2023-01-27T23:26:44.064Z,100374.34
2023-01-27T23:29:24.342Z,100354.38
2023-01-27T23:31:54.029Z,100361.34
2023-01-27T23:34:22.770Z,100331.88
2023-01-27T23:36:51.619Z,100352.88
2023-01-27T23:39:20.335Z,100361.72
2023-01-27T23:41:48.995Z,100363.44
2023-01-27T23:44:17.419Z,100368.66
2023-01-27T23:46:45.877Z,100353.16
2023-01-27T23:49:14.810Z,100343.69
2023-01-27T23:51:43.248Z,100348.88
2023-01-27T23:54:11.844Z,100367.25
2023-01-27T23:56:40.277Z,100332.59
2023-01-27T23:59:09.785Z,100344.69
